sensor_id;sensor_type;location;lat;lon;timestamp;pressure;altitude;pressure_sealevel;temperature;humidity
52651;BME280;38537;47.226;39.702;2023-05-19T00:01:20;100414.09;;;17.77;47.14
52651;BME280;38537;47.226;39.702;2023-05-19T00:03:54;100413.53;;;17.72;47.28
52651;BME280;38537;47.226;39.702;2023-05-19T00:06:25;100418.13;;;17.64;47.49
52651;BME280;38537;47.226;39.702;2023-05-19T00:09:01;100416.00;;;17.73;47.14
52651;BME280;38537;47.226;39.702;2023-05-19T00:11:29;100416.25;;;17.68;47.50
52651;BME280;38537;47.226;39.702;2023-05-19T00:13:58;100424.47;;;17.73;47.20
52651;BME280;38537;47.226;39.702;2023-05-19T00:16:27;100421.06;;;17.68;47.38
52651;BME280;38537;47.226;39.702;2023-05-19T00:18:59;100421.88;;;17.68;47.66
52651;BME280;38537;47.226;39.702;2023-05-19T00:21:28;100405.38;;;17.58;47.55
52651;BME280;38537;47.226;39.702;2023-05-19T00:23:55;100415.97;;;17.61;47.63
52651;BME280;38537;47.226;39.702;2023-05-19T00:26:24;100418.19;;;17.56;47.50
52651;BME280;38537;47.226;39.702;2023-05-19T00:29:03;100414.34;;;17.48;47.80
52651;BME280;38537;47.226;39.702;2023-05-19T00:31:31;100420.00;;;17.48;47.78
52651;BME280;38537;47.226;39.702;2023-05-19T00:34:00;100405.03;;;17.35;47.82
52651;BME280;38537;47.226;39.702;2023-05-19T00:36:28;100403.03;;;17.36;48.23
52651;BME280;38537;47.226;39.702;2023-05-19T00:38:55;100415.28;;;17.40;48.10
52651;BME280;38537;47.226;39.702;2023-05-19T00:41:23;100422.31;;;17.34;48.36
52651;BME280;38537;47.226;39.702;2023-05-19T00:43:51;100423.28;;;17.26;48.57
52651;BME280;38537;47.226;39.702;2023-05-19T00:46:18;100428.44;;;17.24;48.60
52651;BME280;38537;47.226;39.702;2023-05-19T00:48:47;100415.13;;;17.12;48.84
52651;BME280;38537;47.226;39.702;2023-05-19T00:51:14;100415.97;;;17.12;48.92
52651;BME280;38537;47.226;39.702;2023-05-19T00:53:44;100414.78;;;17.13;48.71
52651;BME280;38537;47.226;39.702;2023-05-19T00:56:16;100419.13;;;17.11;48.49
52651;BME280;38537;47.226;39.702;2023-05-19T00:58:44;100427.50;;;17.20;48.71
52651;BME280;38537;47.226;39.702;2023-05-19T01:01:12;100428.31;;;17.20;48.51
52651;BME280;38537;47.226;39.702;2023-05-19T01:03:40;100407.63;;;17.04;48.62
52651;BME280;38537;47.226;39.702;2023-05-19T01:06:09;100411.97;;;17.13;48.64
52651;BME280;38537;47.226;39.702;2023-05-19T01:08:38;100416.44;;;17.14;48.51
52651;BME280;38537;47.226;39.702;2023-05-19T01:11:07;100409.41;;;17.08;48.39
52651;BME280;38537;47.226;39.702;2023-05-19T01:13:35;100423.94;;;17.10;48.98
52651;BME280;38537;47.226;39.702;2023-05-19T01:16:21;100425.25;;;17.13;49.03
52651;BME280;38537;47.226;39.702;2023-05-19T01:18:59;100423.16;;;17.10;48.64
52651;BME280;38537;47.226;39.702;2023-05-19T01:22:03;100423.16;;;17.10;48.76
52651;BME280;38537;47.226;39.702;2023-05-19T01:27:46;100431.84;;;17.05;49.15
52651;BME280;38537;47.226;39.702;2023-05-19T01:30:32;100428.28;;;16.96;49.44
52651;BME280;38537;47.226;39.702;2023-05-19T01:33:08;100422.03;;;16.90;48.99
52651;BME280;38537;47.226;39.702;2023-05-19T01:35:39;100418.78;;;16.88;48.99
52651;BME280;38537;47.226;39.702;2023-05-19T01:38:09;100431.72;;;17.01;48.55
52651;BME280;38537;47.226;39.702;2023-05-19T01:40:40;100431.72;;;17.01;48.56
52651;BME280;38537;47.226;39.702;2023-05-19T01:43:10;100435.00;;;17.03;48.58
52651;BME280;38537;47.226;39.702;2023-05-19T01:45:39;100436.66;;;17.04;48.62
52651;BME280;38537;47.226;39.702;2023-05-19T01:48:06;100427.72;;;17.02;48.66
52651;BME280;38537;47.226;39.702;2023-05-19T01:50:39;100419.22;;;16.90;48.62
52651;BME280;38537;47.226;39.702;2023-05-19T01:53:07;100433.78;;;16.92;48.75
52651;BME280;38537;47.226;39.702;2023-05-19T01:55:38;100434.97;;;16.91;48.76
52651;BME280;38537;47.226;39.702;2023-05-19T01:58:16;100431.56;;;16.86;48.65
52651;BME280;38537;47.226;39.702;2023-05-19T02:00:51;100437.22;;;16.86;49.00
52651;BME280;38537;47.226;39.702;2023-05-19T02:08:36;100443.19;;;16.84;48.79
52651;BME280;38537;47.226;39.702;2023-05-19T02:11:14;100441.91;;;16.82;48.85
52651;BME280;38537;47.226;39.702;2023-05-19T02:13:43;100436.34;;;16.73;48.89
52651;BME280;38537;47.226;39.702;2023-05-19T02:16:15;100425.75;;;16.70;48.70
52651;BME280;38537;47.226;39.702;2023-05-19T02:18:44;100448.00;;;16.84;48.70
52651;BME280;38537;47.226;39.702;2023-05-19T02:21:12;100456.72;;;16.91;48.86
52651;BME280;38537;47.226;39.702;2023-05-19T02:23:40;100452.38;;;16.93;48.74
52651;BME280;38537;47.226;39.702;2023-05-19T02:26:08;100454.16;;;16.98;48.12
52651;BME280;38537;47.226;39.702;2023-05-19T02:28:35;100449.69;;;16.97;48.46
52651;BME280;38537;47.226;39.702;2023-05-19T02:31:04;100465.56;;;17.01;48.46
52651;BME280;38537;47.226;39.702;2023-05-19T02:33:35;100445.22;;;16.96;48.52
52651;BME280;38537;47.226;39.702;2023-05-19T02:36:04;100448.03;;;16.96;48.38
52651;BME280;38537;47.226;39.702;2023-05-19T02:38:33;100465.09;;;17.11;48.24
52651;BME280;38537;47.226;39.702;2023-05-19T02:41:00;100458.75;;;17.02;48.26
52651;BME280;38537;47.226;39.702;2023-05-19T02:43:28;100456.75;;;17.03;48.27
52651;BME280;38537;47.226;39.702;2023-05-19T02:45:56;100463.00;;;17.08;48.50
52651;BME280;38537;47.226;39.702;2023-05-19T02:48:25;100459.84;;;17.10;48.27
52651;BME280;38537;47.226;39.702;2023-05-19T02:50:53;100486.41;;;17.21;48.06
52651;BME280;38537;47.226;39.702;2023-05-19T02:53:21;100486.16;;;17.14;48.21
52651;BME280;38537;47.226;39.702;2023-05-19T02:55:48;100469.09;;;17.10;48.12
52651;BME280;38537;47.226;39.702;2023-05-19T02:58:15;100465.56;;;17.13;48.02
52651;BME280;38537;47.226;39.702;2023-05-19T03:00:43;100482.28;;;17.19;47.93
52651;BME280;38537;47.226;39.702;2023-05-19T03:03:11;100478.56;;;17.27;48.14
52651;BME280;38537;47.226;39.702;2023-05-19T03:05:41;100481.38;;;17.27;48.14
52651;BME280;38537;47.226;39.702;2023-05-19T03:08:09;100479.13;;;17.32;48.12
52651;BME280;38537;47.226;39.702;2023-05-19T03:10:36;100470.44;;;17.25;47.98
52651;BME280;38537;47.226;39.702;2023-05-19T03:13:04;100489.72;;;17.35;47.87
52651;BME280;38537;47.226;39.702;2023-05-19T03:15:32;100485.50;;;17.41;47.90
52651;BME280;38537;47.226;39.702;2023-05-19T03:18:00;100481.50;;;17.42;48.07
52651;BME280;38537;47.226;39.702;2023-05-19T03:20:27;100496.81;;;17.54;47.85
52651;BME280;38537;47.226;39.702;2023-05-19T03:22:57;100500.44;;;17.54;47.95
52651;BME280;38537;47.226;39.702;2023-05-19T03:25:24;100487.63;;;17.57;47.94
52651;BME280;38537;47.226;39.702;2023-05-19T03:27:52;100498.00;;;17.65;47.62
52651;BME280;38537;47.226;39.702;2023-05-19T03:30:19;100498.34;;;17.63;47.78
52651;BME280;38537;47.226;39.702;2023-05-19T03:33:10;100511.22;;;17.73;47.54
52651;BME280;38537;47.226;39.702;2023-05-19T03:35:39;100485.91;;;17.64;47.76
52651;BME280;38537;47.226;39.702;2023-05-19T03:38:07;100498.25;;;17.72;47.64
52651;BME280;38537;47.226;39.702;2023-05-19T03:40:34;100493.31;;;17.69;47.79
52651;BME280;38537;47.226;39.702;2023-05-19T03:43:07;100485.44;;;17.74;47.50
52651;BME280;38537;47.226;39.702;2023-05-19T03:45:42;100492.34;;;17.77;47.68
52651;BME280;38537;47.226;39.702;2023-05-19T03:48:29;100512.25;;;17.93;47.42
52651;BME280;38537;47.226;39.702;2023-05-19T03:51:15;100514.94;;;18.01;47.20
52651;BME280;38537;47.226;39.702;2023-05-19T03:53:44;100474.94;;;17.87;47.00
52651;BME280;38537;47.226;39.702;2023-05-19T03:56:11;100483.75;;;17.98;47.06
52651;BME280;38537;47.226;39.702;2023-05-19T03:58:41;100520.69;;;18.29;46.52
52651;BME280;38537;47.226;39.702;2023-05-19T04:01:10;100517.63;;;18.34;46.17
52651;BME280;38537;47.226;39.702;2023-05-19T04:03:38;100518.63;;;18.42;45.87
52651;BME280;38537;47.226;39.702;2023-05-19T04:06:07;100524.97;;;18.51;46.23
52651;BME280;38537;47.226;39.702;2023-05-19T04:08:35;100508.97;;;18.43;45.51
52651;BME280;38537;47.226;39.702;2023-05-19T04:11:02;100501.19;;;18.52;45.57
52651;BME280;38537;47.226;39.702;2023-05-19T04:13:33;100511.22;;;18.62;45.30
52651;BME280;38537;47.226;39.702;2023-05-19T04:16:01;100523.66;;;18.73;45.15
52651;BME280;38537;47.226;39.702;2023-05-19T04:18:28;100522.00;;;18.72;45.09
52651;BME280;38537;47.226;39.702;2023-05-19T04:20:56;100503.50;;;18.74;44.90
52651;BME280;38537;47.226;39.702;2023-05-19T04:23:24;100528.63;;;18.92;44.80
52651;BME280;38537;47.226;39.702;2023-05-19T04:25:51;100517.94;;;18.85;44.63
52651;BME280;38537;47.226;39.702;2023-05-19T04:28:20;100494.38;;;18.81;44.55
52651;BME280;38537;47.226;39.702;2023-05-19T04:30:47;100527.66;;;19.00;44.58
52651;BME280;38537;47.226;39.702;2023-05-19T04:33:15;100497.50;;;18.92;44.37
52651;BME280;38537;47.226;39.702;2023-05-19T04:35:44;100517.63;;;19.02;44.38
52651;BME280;38537;47.226;39.702;2023-05-19T04:38:12;100530.06;;;19.13;44.32
52651;BME280;38537;47.226;39.702;2023-05-19T04:40:40;100542.78;;;19.20;44.30
52651;BME280;38537;47.226;39.702;2023-05-19T04:43:09;100521.56;;;19.13;44.30
52651;BME280;38537;47.226;39.702;2023-05-19T04:45:38;100509.97;;;19.18;44.07
52651;BME280;38537;47.226;39.702;2023-05-19T04:48:10;100524.63;;;19.36;44.17
52651;BME280;38537;47.226;39.702;2023-05-19T04:50:38;100511.75;;;19.39;43.94
52651;BME280;38537;47.226;39.702;2023-05-19T04:53:08;100511.13;;;19.45;44.11
52651;BME280;38537;47.226;39.702;2023-05-19T04:55:37;100526.94;;;19.62;43.52
52651;BME280;38537;47.226;39.702;2023-05-19T04:58:05;100517.72;;;19.65;43.73
52651;BME280;38537;47.226;39.702;2023-05-19T05:00:33;100533.16;;;19.83;43.31
52651;BME280;38537;47.226;39.702;2023-05-19T05:03:08;100537.72;;;19.88;43.15
52651;BME280;38537;47.226;39.702;2023-05-19T05:05:35;100500.53;;;19.74;42.83
52651;BME280;38537;47.226;39.702;2023-05-19T05:10:50;100530.56;;;20.10;42.92
52651;BME280;38537;47.226;39.702;2023-05-19T05:13:22;100549.09;;;20.23;42.79
52651;BME280;38537;47.226;39.702;2023-05-19T05:15:50;100541.22;;;20.32;42.51
52651;BME280;38537;47.226;39.702;2023-05-19T05:18:22;100536.91;;;20.38;42.46
52651;BME280;38537;47.226;39.702;2023-05-19T05:20:49;100528.88;;;20.40;42.44
52651;BME280;38537;47.226;39.702;2023-05-19T05:23:18;100526.19;;;20.47;42.27
52651;BME280;38537;47.226;39.702;2023-05-19T05:25:47;100535.00;;;20.62;42.30
52651;BME280;38537;47.226;39.702;2023-05-19T05:28:15;100542.66;;;20.77;42.10
52651;BME280;38537;47.226;39.702;2023-05-19T05:30:44;100552.59;;;20.86;41.27
52651;BME280;38537;47.226;39.702;2023-05-19T05:33:15;100536.16;;;20.76;41.12
52651;BME280;38537;47.226;39.702;2023-05-19T05:35:45;100529.06;;;20.86;40.84
52651;BME280;38537;47.226;39.702;2023-05-19T05:38:13;100537.81;;;20.97;40.89
52651;BME280;38537;47.226;39.702;2023-05-19T05:40:41;100528.00;;;20.94;41.13
52651;BME280;38537;47.226;39.702;2023-05-19T05:43:08;100526.94;;;21.02;41.07
52651;BME280;38537;47.226;39.702;2023-05-19T05:45:46;100528.38;;;21.12;40.99
52651;BME280;38537;47.226;39.702;2023-05-19T05:48:14;100523.22;;;21.17;40.92
52651;BME280;38537;47.226;39.702;2023-05-19T05:50:42;100537.69;;;21.32;40.28
52651;BME280;38537;47.226;39.702;2023-05-19T05:53:19;100549.66;;;21.41;39.92
52651;BME280;38537;47.226;39.702;2023-05-19T05:55:51;100539.16;;;21.45;40.23
52651;BME280;38537;47.226;39.702;2023-05-19T05:58:23;100540.81;;;21.46;39.99
52651;BME280;38537;47.226;39.702;2023-05-19T06:00:51;100543.34;;;21.51;40.29
52651;BME280;38537;47.226;39.702;2023-05-19T06:03:21;100536.00;;;21.50;39.94
52651;BME280;38537;47.226;39.702;2023-05-19T06:05:52;100525.84;;;21.49;40.24
52651;BME280;38537;47.226;39.702;2023-05-19T06:08:19;100523.81;;;21.49;40.39
52651;BME280;38537;47.226;39.702;2023-05-19T06:10:47;100531.34;;;21.61;40.56
52651;BME280;38537;47.226;39.702;2023-05-19T06:13:17;100520.06;;;21.65;40.23
52651;BME280;38537;47.226;39.702;2023-05-19T06:15:49;100522.09;;;21.68;40.37
52651;BME280;38537;47.226;39.702;2023-05-19T06:18:24;100526.78;;;21.79;40.85
52651;BME280;38537;47.226;39.702;2023-05-19T06:20:52;100542.75;;;21.87;40.79
52651;BME280;38537;47.226;39.702;2023-05-19T06:23:20;100528.06;;;21.82;40.27
52651;BME280;38537;47.226;39.702;2023-05-19T06:25:48;100547.38;;;21.96;40.37
52651;BME280;38537;47.226;39.702;2023-05-19T06:28:15;100542.22;;;22.01;40.45
52651;BME280;38537;47.226;39.702;2023-05-19T06:30:45;100539.72;;;22.00;40.44
52651;BME280;38537;47.226;39.702;2023-05-19T06:33:20;100546.75;;;22.06;40.85
52651;BME280;38537;47.226;39.702;2023-05-19T06:35:48;100545.97;;;22.09;40.60
52651;BME280;38537;47.226;39.702;2023-05-19T06:38:15;100553.81;;;22.15;40.36
52651;BME280;38537;47.226;39.702;2023-05-19T06:40:44;100553.81;;;22.15;40.60
52651;BME280;38537;47.226;39.702;2023-05-19T06:43:12;100549.31;;;22.14;40.52
52651;BME280;38537;47.226;39.702;2023-05-19T06:45:55;100568.97;;;22.23;39.77
52651;BME280;38537;47.226;39.702;2023-05-19T06:48:24;100550.09;;;22.11;39.62
52651;BME280;38537;47.226;39.702;2023-05-19T06:50:52;100569.75;;;22.20;39.55
52651;BME280;38537;47.226;39.702;2023-05-19T06:53:19;100556.22;;;22.13;39.74
52651;BME280;38537;47.226;39.702;2023-05-19T06:55:47;100563.22;;;22.19;39.37
52651;BME280;38537;47.226;39.702;2023-05-19T06:58:28;100571.38;;;22.21;39.62
52651;BME280;38537;47.226;39.702;2023-05-19T07:00:58;100555.84;;;22.15;39.60
52651;BME280;38537;47.226;39.702;2023-05-19T07:03:31;100583.97;;;22.20;39.08
52651;BME280;38537;47.226;39.702;2023-05-19T07:06:00;100582.75;;;22.21;39.32
52651;BME280;38537;47.226;39.702;2023-05-19T07:08:28;100574.22;;;22.21;39.37
52651;BME280;38537;47.226;39.702;2023-05-19T07:10:58;100565.19;;;22.15;39.17
52651;BME280;38537;47.226;39.702;2023-05-19T07:13:27;100588.22;;;22.33;39.38
52651;BME280;38537;47.226;39.702;2023-05-19T07:15:57;100576.19;;;22.17;38.41
52651;BME280;38537;47.226;39.702;2023-05-19T07:18:28;100593.53;;;22.35;37.77
52651;BME280;38537;47.226;39.702;2023-05-19T07:20:58;100580.56;;;22.37;37.68
52651;BME280;38537;47.226;39.702;2023-05-19T07:23:27;100574.88;;;22.37;36.91
52651;BME280;38537;47.226;39.702;2023-05-19T07:25:56;100583.09;;;22.42;36.75
52651;BME280;38537;47.226;39.702;2023-05-19T07:28:26;100596.69;;;22.56;36.73
52651;BME280;38537;47.226;39.702;2023-05-19T07:30:54;100591.84;;;22.56;36.76
52651;BME280;38537;47.226;39.702;2023-05-19T07:33:22;100558.81;;;22.52;36.92
52651;BME280;38537;47.226;39.702;2023-05-19T07:35:50;100578.44;;;22.57;36.55
52651;BME280;38537;47.226;39.702;2023-05-19T07:38:18;100582.09;;;22.57;36.92
52651;BME280;38537;47.226;39.702;2023-05-19T07:40:45;100577.34;;;22.65;37.04
52651;BME280;38537;47.226;39.702;2023-05-19T07:43:14;100592.59;;;22.80;37.06
52651;BME280;38537;47.226;39.702;2023-05-19T07:45:42;100576.63;;;22.72;36.36
52651;BME280;38537;47.226;39.702;2023-05-19T07:48:09;100591.34;;;22.77;36.71
52651;BME280;38537;47.226;39.702;2023-05-19T07:50:36;100587.66;;;22.77;36.93
52651;BME280;38537;47.226;39.702;2023-05-19T07:53:04;100596.19;;;22.77;36.61
52651;BME280;38537;47.226;39.702;2023-05-19T07:55:34;100587.78;;;22.84;36.51
52651;BME280;38537;47.226;39.702;2023-05-19T07:58:01;100590.44;;;23.00;36.78
52651;BME280;38537;47.226;39.702;2023-05-19T08:00:29;100584.34;;;23.01;36.21
52651;BME280;38537;47.226;39.702;2023-05-19T08:02:57;100574.13;;;22.97;36.45
52651;BME280;38537;47.226;39.702;2023-05-19T08:05:24;100596.66;;;23.09;36.80
52651;BME280;38537;47.226;39.702;2023-05-19T08:07:52;100598.78;;;23.15;36.71
52651;BME280;38537;47.226;39.702;2023-05-19T08:10:19;100567.66;;;23.00;36.76
52651;BME280;38537;47.226;39.702;2023-05-19T08:12:46;100579.09;;;23.03;36.26
52651;BME280;38537;47.226;39.702;2023-05-19T08:15:14;100559.59;;;23.05;36.66
52651;BME280;38537;47.226;39.702;2023-05-19T08:17:42;100584.19;;;23.20;36.96
52651;BME280;38537;47.226;39.702;2023-05-19T08:20:10;100591.22;;;23.30;36.44
52651;BME280;38537;47.226;39.702;2023-05-19T08:22:48;100563.03;;;23.21;36.01
52651;BME280;38537;47.226;39.702;2023-05-19T08:25:17;100575.38;;;23.33;36.15
52651;BME280;38537;47.226;39.702;2023-05-19T08:27:45;100581.19;;;23.43;36.02
52651;BME280;38537;47.226;39.702;2023-05-19T08:30:13;100584.09;;;23.47;36.60
52651;BME280;38537;47.226;39.702;2023-05-19T08:32:40;100591.34;;;23.41;36.81
52651;BME280;38537;47.226;39.702;2023-05-19T08:35:08;100589.09;;;23.53;37.09
52651;BME280;38537;47.226;39.702;2023-05-19T08:37:36;100586.22;;;23.53;36.91
52651;BME280;38537;47.226;39.702;2023-05-19T08:40:07;100603.44;;;23.64;36.42
52651;BME280;38537;47.226;39.702;2023-05-19T08:42:38;100607.50;;;23.63;36.52
52651;BME280;38537;47.226;39.702;2023-05-19T08:45:06;100595.31;;;23.66;37.22
52651;BME280;38537;47.226;39.702;2023-05-19T08:47:34;100578.94;;;23.56;37.78
52651;BME280;38537;47.226;39.702;2023-05-19T08:50:06;100572.88;;;23.65;38.04
52651;BME280;38537;47.226;39.702;2023-05-19T08:52:50;100582.84;;;23.81;37.71
52651;BME280;38537;47.226;39.702;2023-05-19T08:55:40;100595.53;;;23.87;36.16
52651;BME280;38537;47.226;39.702;2023-05-19T08:58:10;100557.09;;;23.74;37.41
52651;BME280;38537;47.226;39.702;2023-05-19T09:00:38;100578.88;;;23.93;37.54
52651;BME280;38537;47.226;39.702;2023-05-19T09:03:06;100591.59;;;24.03;36.79
52651;BME280;38537;47.226;39.702;2023-05-19T09:05:44;100589.22;;;24.12;36.75
52651;BME280;38537;47.226;39.702;2023-05-19T09:08:12;100586.03;;;24.20;36.73
52651;BME280;38537;47.226;39.702;2023-05-19T09:10:40;100590.09;;;24.19;36.10
52651;BME280;38537;47.226;39.702;2023-05-19T09:13:08;100582.78;;;24.22;36.64
52651;BME280;38537;47.226;39.702;2023-05-19T09:15:37;100580.44;;;24.31;36.11
52651;BME280;38537;47.226;39.702;2023-05-19T09:18:10;100567.84;;;24.36;35.67
52651;BME280;38537;47.226;39.702;2023-05-19T09:20:42;100595.66;;;24.49;35.58
52651;BME280;38537;47.226;39.702;2023-05-19T09:23:12;100602.69;;;24.63;35.96
52651;BME280;38537;47.226;39.702;2023-05-19T09:25:51;100586.41;;;24.67;36.41
52651;BME280;38537;47.226;39.702;2023-05-19T09:28:23;100609.25;;;24.70;34.08
52651;BME280;38537;47.226;39.702;2023-05-19T09:31:04;100587.94;;;24.53;33.84
52651;BME280;38537;47.226;39.702;2023-05-19T09:33:37;100581.34;;;24.42;34.19
52651;BME280;38537;47.226;39.702;2023-05-19T09:36:05;100587.09;;;24.46;34.37
52651;BME280;38537;47.226;39.702;2023-05-19T09:38:36;100585.09;;;24.57;34.53
52651;BME280;38537;47.226;39.702;2023-05-19T09:41:05;100585.94;;;24.61;34.54
52651;BME280;38537;47.226;39.702;2023-05-19T09:43:33;100590.47;;;24.69;34.54
52651;BME280;38537;47.226;39.702;2023-05-19T09:46:05;100586.91;;;24.83;34.65
52651;BME280;38537;47.226;39.702;2023-05-19T09:48:34;100555.84;;;24.78;34.56
52651;BME280;38537;47.226;39.702;2023-05-19T09:51:03;100584.91;;;24.94;34.36
52651;BME280;38537;47.226;39.702;2023-05-19T09:53:33;100590.69;;;25.01;35.08
52651;BME280;38537;47.226;39.702;2023-05-19T09:56:01;100602.13;;;25.05;34.94
52651;BME280;38537;47.226;39.702;2023-05-19T09:58:33;100572.69;;;24.97;35.29
52651;BME280;38537;47.226;39.702;2023-05-19T10:01:05;100591.16;;;25.10;35.85
52651;BME280;38537;47.226;39.702;2023-05-19T10:03:34;100577.63;;;25.00;35.67
52651;BME280;38537;47.226;39.702;2023-05-19T10:06:04;100587.41;;;24.99;35.88
52651;BME280;38537;47.226;39.702;2023-05-19T10:08:33;100579.97;;;24.87;35.67
52651;BME280;38537;47.226;39.702;2023-05-19T10:11:02;100585.31;;;24.89;35.32
52651;BME280;38537;47.226;39.702;2023-05-19T10:13:29;100584.84;;;24.83;34.87
52651;BME280;38537;47.226;39.702;2023-05-19T10:15:59;100587.22;;;24.71;34.48
52651;BME280;38537;47.226;39.702;2023-05-19T10:18:28;100601.88;;;24.62;34.24
52651;BME280;38537;47.226;39.702;2023-05-19T10:20:57;100595.31;;;24.58;33.81
52651;BME280;38537;47.226;39.702;2023-05-19T10:23:27;100595.69;;;24.53;34.34
52651;BME280;38537;47.226;39.702;2023-05-19T10:25:58;100571.13;;;24.41;34.59
52651;BME280;38537;47.226;39.702;2023-05-19T10:28:34;100599.34;;;24.53;34.47
52651;BME280;38537;47.226;39.702;2023-05-19T10:31:06;100582.94;;;24.40;34.65
52651;BME280;38537;47.226;39.702;2023-05-19T10:33:52;100573.94;;;24.34;34.14
52651;BME280;38537;47.226;39.702;2023-05-19T10:36:43;100567.81;;;24.32;34.29
52651;BME280;38537;47.226;39.702;2023-05-19T10:39:16;100574.38;;;24.40;34.22
52651;BME280;38537;47.226;39.702;2023-05-19T10:42:03;100602.69;;;24.63;34.05
52651;BME280;38537;47.226;39.702;2023-05-19T10:47:08;100581.91;;;24.66;33.74
52651;BME280;38537;47.226;39.702;2023-05-19T10:49:38;100590.56;;;24.83;33.92
52651;BME280;38537;47.226;39.702;2023-05-19T10:52:22;100585.69;;;24.87;33.34
52651;BME280;38537;47.226;39.702;2023-05-19T10:54:59;100581.66;;;24.96;33.97
52651;BME280;38537;47.226;39.702;2023-05-19T10:57:29;100580.47;;;25.00;33.52
52651;BME280;38537;47.226;39.702;2023-05-19T11:00:29;100590.28;;;25.03;32.11
52651;BME280;38537;47.226;39.702;2023-05-19T11:03:18;100583.25;;;24.89;32.61
52651;BME280;38537;47.226;39.702;2023-05-19T11:05:50;100583.59;;;24.77;33.21
52651;BME280;38537;47.226;39.702;2023-05-19T11:08:31;100588.13;;;24.82;33.00
52651;BME280;38537;47.226;39.702;2023-05-19T11:11:16;100570.91;;;24.71;33.47
52651;BME280;38537;47.226;39.702;2023-05-19T11:13:49;100583.97;;;24.72;33.93
52651;BME280;38537;47.226;39.702;2023-05-19T11:16:30;100570.91;;;24.75;33.74
52651;BME280;38537;47.226;39.702;2023-05-19T11:18:59;100579.06;;;24.66;34.12
52651;BME280;38537;47.226;39.702;2023-05-19T11:21:47;100562.69;;;24.59;34.23
52651;BME280;38537;47.226;39.702;2023-05-19T11:24:45;100576.63;;;24.68;33.73
52651;BME280;38537;47.226;39.702;2023-05-19T11:29:48;100568.44;;;24.70;33.71
52651;BME280;38537;47.226;39.702;2023-05-19T11:32:16;100571.78;;;24.79;33.91
52651;BME280;38537;47.226;39.702;2023-05-19T11:34:43;100555.34;;;24.58;33.36
52651;BME280;38537;47.226;39.702;2023-05-19T11:37:12;100570.75;;;24.43;33.21
52651;BME280;38537;47.226;39.702;2023-05-19T11:39:40;100563.00;;;24.43;33.45
52651;BME280;38537;47.226;39.702;2023-05-19T11:42:10;100564.63;;;24.48;32.97
52651;BME280;38537;47.226;39.702;2023-05-19T11:44:38;100554.88;;;24.52;32.84
52651;BME280;38537;47.226;39.702;2023-05-19T11:47:07;100574.16;;;24.66;33.08
52651;BME280;38537;47.226;39.702;2023-05-19T11:49:35;100565.19;;;24.71;33.15
52651;BME280;38537;47.226;39.702;2023-05-19T11:52:03;100576.59;;;24.71;32.12
52651;BME280;38537;47.226;39.702;2023-05-19T11:54:34;100571.25;;;24.59;32.24
52651;BME280;38537;47.226;39.702;2023-05-19T11:57:24;100567.16;;;24.56;32.58
52651;BME280;38537;47.226;39.702;2023-05-19T11:59:51;100578.63;;;24.64;32.53
52651;BME280;38537;47.226;39.702;2023-05-19T12:02:23;100559.41;;;24.57;32.05
52651;BME280;38537;47.226;39.702;2023-05-19T12:04:53;100571.72;;;24.72;32.08
52651;BME280;38537;47.226;39.702;2023-05-19T12:07:23;100582.34;;;24.75;31.86
52651;BME280;38537;47.226;39.702;2023-05-19T12:09:53;100557.44;;;24.68;32.01
52651;BME280;38537;47.226;39.702;2023-05-19T12:12:22;100566.91;;;24.86;32.17
52651;BME280;38537;47.226;39.702;2023-05-19T12:14:50;100558.41;;;24.97;32.73
52651;BME280;38537;47.226;39.702;2023-05-19T12:17:19;100562.00;;;24.90;32.05
52651;BME280;38537;47.226;39.702;2023-05-19T12:19:47;100560.41;;;24.89;32.21
52651;BME280;38537;47.226;39.702;2023-05-19T12:22:16;100567.38;;;24.96;32.69
52651;BME280;38537;47.226;39.702;2023-05-19T12:24:45;100551.03;;;24.89;32.68
52651;BME280;38537;47.226;39.702;2023-05-19T12:27:23;100554.78;;;25.07;32.56
52651;BME280;38537;47.226;39.702;2023-05-19T12:29:54;100542.97;;;25.09;32.55
52651;BME280;38537;47.226;39.702;2023-05-19T12:32:24;100546.91;;;24.90;32.16
52651;BME280;38537;47.226;39.702;2023-05-19T12:34:52;100544.13;;;24.97;32.59
52651;BME280;38537;47.226;39.702;2023-05-19T12:37:20;100529.75;;;24.83;32.57
52651;BME280;38537;47.226;39.702;2023-05-19T12:39:48;100544.13;;;24.97;32.45
52651;BME280;38537;47.226;39.702;2023-05-19T12:42:16;100524.03;;;24.83;32.74
52651;BME280;38537;47.226;39.702;2023-05-19T12:44:46;100557.91;;;24.81;32.40
52651;BME280;38537;47.226;39.702;2023-05-19T12:47:15;100568.44;;;24.70;32.49
52651;BME280;38537;47.226;39.702;2023-05-19T12:50:12;100555.78;;;24.64;32.71
52651;BME280;38537;47.226;39.702;2023-05-19T12:52:47;100548.44;;;24.63;33.07
52651;BME280;38537;47.226;39.702;2023-05-19T12:55:16;100552.13;;;24.70;33.13
52651;BME280;38537;47.226;39.702;2023-05-19T12:57:47;100552.13;;;24.70;32.73
52651;BME280;38537;47.226;39.702;2023-05-19T13:00:18;100555.00;;;24.74;33.06
52651;BME280;38537;47.226;39.702;2023-05-19T13:05:30;100546.44;;;24.74;33.05
52651;BME280;38537;47.226;39.702;2023-05-19T13:08:06;100560.34;;;24.79;32.84
52651;BME280;38537;47.226;39.702;2023-05-19T13:10:35;100564.38;;;24.71;32.89
52651;BME280;38537;47.226;39.702;2023-05-19T13:13:04;100548.00;;;24.60;33.37
52651;BME280;38537;47.226;39.702;2023-05-19T13:15:35;100554.91;;;24.56;33.08
52651;BME280;38537;47.226;39.702;2023-05-19T13:18:08;100568.44;;;24.70;33.04